createdAt,value
2023-09-08T00:05:11.019Z,2.78
2023-09-08T00:10:34.533Z,2.70
2023-09-08T00:15:59.105Z,2.78
2023-09-08T00:21:22.322Z,3.17
2023-09-08T00:26:44.798Z,3.13
2023-09-08T00:32:08.222Z,2.95
2023-09-08T00:37:30.796Z,2.60
2023-09-08T00:42:53.922Z,2.75
2023-09-08T00:48:17.891Z,2.25
2023-09-08T00:53:40.347Z,2.50
2023-09-08T00:59:04.121Z,2.35
2023-09-08T01:04:28.756Z,2.20
2023-09-08T01:09:51.641Z,2.95
2023-09-08T01:15:14.632Z,2.03
2023-09-08T01:20:45.546Z,2.65
2023-09-08T01:26:10.787Z,2.53
2023-09-08T01:31:34.356Z,2.38
2023-09-08T01:36:58.105Z,2.63
2023-09-08T01:42:21.949Z,2.35
2023-09-08T01:47:44.802Z,2.13
2023-09-08T01:53:07.260Z,3.65
2023-09-08T01:58:32.832Z,2.95
2023-09-08T02:03:56.788Z,3.70
2023-09-08T02:09:19.599Z,3.05
2023-09-08T02:14:43.628Z,2.60
2023-09-08T02:20:06.784Z,3.75
2023-09-08T02:25:30.420Z,3.78
2023-09-08T02:30:54.568Z,3.38
2023-09-08T02:36:17.749Z,3.40
2023-09-08T02:41:40.551Z,3.28
2023-09-08T02:47:04.711Z,3.50
2023-09-08T02:52:27.660Z,4.35
2023-09-08T02:57:50.626Z,4.25
2023-09-08T03:03:14.859Z,3.88
2023-09-08T03:08:38.787Z,5.38
2023-09-08T03:14:01.704Z,5.15
2023-09-08T03:19:27.917Z,4.75
2023-09-08T03:24:57.120Z,4.53
2023-09-08T03:30:20.025Z,4.70
2023-09-08T03:35:50.541Z,5.03
2023-09-08T03:41:19.787Z,5.57
2023-09-08T03:46:46.878Z,5.70
2023-09-08T03:52:13.399Z,3.80
2023-09-08T03:57:36.046Z,6.60
2023-09-08T04:03:00.049Z,4.57
2023-09-08T04:08:24.085Z,3.88
2023-09-08T04:13:46.541Z,4.95
2023-09-08T04:19:09.225Z,2.92
2023-09-08T04:24:37.026Z,3.47
2023-09-08T04:30:00.742Z,3.95
2023-09-08T04:35:24.001Z,3.20
2023-09-08T04:40:48.782Z,3.55
2023-09-08T04:46:11.946Z,3.42
2023-09-08T04:51:34.644Z,3.08
2023-09-08T04:57:11.860Z,3.45
2023-09-08T05:02:43.071Z,3.13
2023-09-08T05:08:07.559Z,3.63
2023-09-08T05:13:33.258Z,3.38
2023-09-08T05:18:58.780Z,3.10
2023-09-08T05:24:22.079Z,3.65
2023-09-08T05:29:46.105Z,2.53
2023-09-08T05:35:09.741Z,2.55
2023-09-08T05:40:32.636Z,3.45
2023-09-08T05:45:56.836Z,2.75
2023-09-08T05:51:20.212Z,2.80
2023-09-08T05:56:43.288Z,3.17
2023-09-08T06:02:07.426Z,3.20
2023-09-08T06:07:29.623Z,3.03
2023-09-08T06:12:56.530Z,2.97
2023-09-08T06:18:20.960Z,4.15
2023-09-08T06:23:44.128Z,2.95
2023-09-08T06:29:08.787Z,2.80
2023-09-08T06:34:35.035Z,2.70
2023-09-08T06:39:58.619Z,1.77
2023-09-08T06:45:21.491Z,2.30
2023-09-08T06:50:45.651Z,2.83
2023-09-08T06:56:08.736Z,2.50
2023-09-08T07:01:32.007Z,2.63
2023-09-08T07:06:56.982Z,3.08
2023-09-08T07:12:20.609Z,2.50
2023-09-08T07:17:44.429Z,2.90
2023-09-08T07:23:09.212Z,3.22
2023-09-08T07:28:32.752Z,2.65
2023-09-08T07:33:59.250Z,2.00
2023-09-08T07:39:31.311Z,1.83
2023-09-08T07:44:53.951Z,4.88
2023-09-08T07:50:21.600Z,1.30
2023-09-08T07:55:45.823Z,1.80
2023-09-08T08:01:08.655Z,1.45
2023-09-08T08:06:31.925Z,1.63
2023-09-08T08:11:56.062Z,1.80
2023-09-08T08:17:20.647Z,2.03
2023-09-08T08:22:43.334Z,3.42
2023-09-08T08:28:07.406Z,2.42
2023-09-08T08:33:30.726Z,2.53
2023-09-08T08:38:53.193Z,1.38
2023-09-08T08:44:17.682Z,2.08
2023-09-08T08:49:42.290Z,2.08
2023-09-08T08:55:06.223Z,2.05
2023-09-08T09:00:30.159Z,2.00
2023-09-08T09:05:53.642Z,1.42
2023-09-08T09:11:16.774Z,1.80
2023-09-08T09:16:42.467Z,1.45
2023-09-08T09:22:05.105Z,1.42
2023-09-08T09:27:27.787Z,1.08
2023-09-08T09:32:51.883Z,1.42
2023-09-08T09:38:15.059Z,1.70
2023-09-08T09:43:38.945Z,0.98
2023-09-08T09:49:04.867Z,1.80
2023-09-08T09:54:28.385Z,1.77
2023-09-08T09:59:55.741Z,0.98
2023-09-08T10:05:20.549Z,3.30
2023-09-08T10:10:47.132Z,1.20
2023-09-08T10:16:10.963Z,2.22
2023-09-08T10:21:35.843Z,2.08
2023-09-08T10:27:00.407Z,1.60
2023-09-08T10:32:23.075Z,2.00
2023-09-08T10:37:46.889Z,1.20
2023-09-08T10:43:10.060Z,1.23
2023-09-08T10:48:42.308Z,2.05
2023-09-08T10:54:06.632Z,1.58
2023-09-08T10:59:37.565Z,1.55
2023-09-08T11:05:00.851Z,1.23
2023-09-08T11:10:31.772Z,1.00
2023-09-08T11:16:00.716Z,1.23
2023-09-08T11:21:35.589Z,2.03
2023-09-08T11:27:05.875Z,1.50
2023-09-08T11:32:33.778Z,2.60
2023-09-08T11:38:01.131Z,1.20
2023-09-08T11:43:34.019Z,1.80
2023-09-08T11:54:19.898Z,2.10
2023-09-08T11:59:43.937Z,1.70
2023-09-08T12:05:07.058Z,1.73
2023-09-08T12:10:29.589Z,2.05
2023-09-08T12:15:54.055Z,1.48
2023-09-08T12:21:16.929Z,1.60
2023-09-08T12:26:39.357Z,1.73
2023-09-08T12:32:03.852Z,2.45
2023-09-08T12:37:28.726Z,1.77
2023-09-08T12:42:57.163Z,2.72
2023-09-08T12:48:30.307Z,1.77
2023-09-08T12:53:52.819Z,2.30
2023-09-08T12:59:14.566Z,3.08
2023-09-08T13:04:39.445Z,1.73
2023-09-08T13:10:02.616Z,1.70
2023-09-08T13:15:25.492Z,2.55
2023-09-08T13:20:49.259Z,2.10
2023-09-08T13:26:14.168Z,2.42
2023-09-08T13:31:46.342Z,1.67
2023-09-08T13:37:10.974Z,1.90
2023-09-08T13:42:34.171Z,3.20
2023-09-08T13:47:56.880Z,2.50
2023-09-08T13:53:21.151Z,2.20
2023-09-08T13:58:50.308Z,2.45
2023-09-08T14:04:17.708Z,1.80
2023-09-08T14:09:53.796Z,1.42
2023-09-08T14:15:20.768Z,1.70
2023-09-08T14:20:44.389Z,1.52
2023-09-08T14:26:08.702Z,2.03
2023-09-08T14:31:37.183Z,2.88
2023-09-08T14:37:05.066Z,1.35
2023-09-08T14:42:30.315Z,1.63
2023-09-08T14:47:54.478Z,2.00
2023-09-08T14:53:18.073Z,1.50
2023-09-08T14:58:47.740Z,1.90
2023-09-08T15:04:16.569Z,1.65
2023-09-08T15:09:45.408Z,2.75
2023-09-08T15:15:16.955Z,1.48
2023-09-08T15:20:39.694Z,1.98
2023-09-08T15:26:03.019Z,2.30
2023-09-08T15:31:26.991Z,2.72
2023-09-08T15:36:50.751Z,2.08
2023-09-08T15:42:15.356Z,2.45
2023-09-08T15:47:39.648Z,2.50
2023-09-08T15:53:02.524Z,2.63
2023-09-08T15:58:25.013Z,1.75
2023-09-08T16:03:49.171Z,2.47
2023-09-08T16:09:12.553Z,2.88
2023-09-08T16:14:36.419Z,3.50
2023-09-08T16:20:00.495Z,2.97
2023-09-08T16:25:23.074Z,2.80
2023-09-08T16:30:45.462Z,3.15
2023-09-08T16:36:09.776Z,2.55
2023-09-08T16:41:32.343Z,2.45
2023-09-08T16:46:54.672Z,2.67
2023-09-08T16:52:18.596Z,2.45
2023-09-08T16:57:41.404Z,2.58
2023-09-08T17:03:04.689Z,5.20
2023-09-08T17:08:29.533Z,3.13
2023-09-08T17:13:52.259Z,2.92
2023-09-08T17:19:20.137Z,3.10
2023-09-08T17:24:49.355Z,3.63
2023-09-08T17:30:18.060Z,4.25
2023-09-08T17:35:46.599Z,5.15
2023-09-08T17:41:10.428Z,4.47
2023-09-08T17:46:34.442Z,5.10
2023-09-08T17:51:57.164Z,4.90
2023-09-08T17:57:21.647Z,3.95
2023-09-08T18:02:44.356Z,3.58
2023-09-08T18:08:09.337Z,3.05
2023-09-08T18:13:33.095Z,2.90
2023-09-08T18:18:56.286Z,3.45
2023-09-08T18:24:19.044Z,3.00
2023-09-08T18:29:43.704Z,3.22
2023-09-08T18:35:07.663Z,3.22
2023-09-08T18:40:30.454Z,3.05
2023-09-08T18:45:54.373Z,3.15
2023-09-08T18:51:16.626Z,2.72
2023-09-08T18:56:38.579Z,3.10
2023-09-08T19:07:31.307Z,3.15
2023-09-08T19:12:53.692Z,3.08
2023-09-08T19:18:17.301Z,2.40
2023-09-08T19:23:41.431Z,3.03
2023-09-08T19:29:04.283Z,2.20
2023-09-08T19:34:27.737Z,2.97
2023-09-08T19:39:54.902Z,2.97
2023-09-08T19:45:17.612Z,3.40
2023-09-08T19:50:40.078Z,2.67
2023-09-08T19:56:09.682Z,2.80
2023-09-08T20:01:38.428Z,2.20
2023-09-08T20:12:38.719Z,2.25
2023-09-08T20:18:01.357Z,2.65
2023-09-08T20:23:24.222Z,2.58
2023-09-08T20:28:50.015Z,4.30
2023-09-08T20:34:17.423Z,3.92
2023-09-08T20:39:40.622Z,4.00
2023-09-08T20:45:04.861Z,3.20
2023-09-08T20:50:28.061Z,3.10
2023-09-08T20:55:50.955Z,3.30
2023-09-08T21:01:20.573Z,2.93
2023-09-08T21:06:49.430Z,3.20
2023-09-08T21:12:12.141Z,3.20
2023-09-08T21:17:36.330Z,2.90
2023-09-08T21:23:02.700Z,2.90
2023-09-08T21:28:25.294Z,3.08
2023-09-08T21:33:51.126Z,3.28
2023-09-08T21:39:14.612Z,3.00
2023-09-08T21:44:37.195Z,2.42
2023-09-08T21:50:01.463Z,3.10
2023-09-08T21:55:24.237Z,2.53
2023-09-08T22:00:46.605Z,2.80
2023-09-08T22:06:10.693Z,3.08
2023-09-08T22:11:33.920Z,2.78
2023-09-08T22:16:56.812Z,2.72
2023-09-08T22:22:20.843Z,2.63
2023-09-08T22:27:43.575Z,3.05
2023-09-08T22:33:06.080Z,2.53
2023-09-08T22:38:29.969Z,2.60
2023-09-08T22:43:52.904Z,2.70
2023-09-08T22:49:15.536Z,3.10
2023-09-08T22:54:39.287Z,3.28
2023-09-08T23:00:02.134Z,2.70
2023-09-08T23:05:24.859Z,2.67
2023-09-08T23:10:54.677Z,2.20
2023-09-08T23:16:18.274Z,2.72
2023-09-08T23:21:45.263Z,2.88
2023-09-08T23:27:09.757Z,3.63
2023-09-08T23:32:32.396Z,3.60
2023-09-08T23:37:55.098Z,2.88
2023-09-08T23:43:19.100Z,3.50
2023-09-08T23:48:41.534Z,3.72
2023-09-08T23:54:04.868Z,5.03
2023-09-08T23:59:29.144Z,5.60
